createdAt,value
2018-06-29T00:04:41.335Z,99.90
2018-06-29T00:10:47.020Z,99.90
2018-06-29T00:16:54.414Z,99.90
2018-06-29T00:23:00.492Z,99.90
2018-06-29T00:29:06.171Z,99.90
2018-06-29T00:35:11.849Z,99.90
2018-06-29T00:41:17.708Z,99.90
2018-06-29T00:47:24.761Z,99.90
2018-06-29T00:53:30.438Z,99.90
2018-06-29T00:59:36.402Z,99.90
2018-06-29T01:05:42.055Z,99.90
2018-06-29T01:11:47.986Z,99.90
2018-06-29T01:17:54.527Z,99.90
2018-06-29T01:24:00.318Z,99.90
2018-06-29T01:30:06.121Z,99.90
2018-06-29T01:36:11.895Z,99.90
2018-06-29T01:42:17.561Z,99.90
2018-06-29T01:48:23.549Z,99.90
2018-06-29T01:54:30.634Z,99.90
2018-06-29T02:00:36.454Z,99.90
2018-06-29T02:06:42.191Z,99.90
2018-06-29T02:12:48.086Z,99.90
2018-06-29T02:18:53.929Z,99.90
2018-06-29T02:24:59.570Z,99.90
2018-06-29T02:31:05.228Z,99.90
2018-06-29T02:37:10.934Z,99.90
2018-06-29T02:43:17.045Z,99.90
2018-06-29T02:49:23.913Z,99.90
2018-06-29T02:55:29.608Z,99.90
2018-06-29T03:01:35.356Z,99.90
2018-06-29T03:07:41.075Z,99.90
2018-06-29T03:13:46.785Z,99.90
2018-06-29T03:19:52.844Z,99.90
2018-06-29T03:25:58.605Z,99.90
2018-06-29T03:32:04.488Z,99.90
2018-06-29T03:38:10.375Z,99.90
2018-06-29T03:50:22.251Z,99.90
2018-06-29T03:56:28.059Z,99.90
2018-06-29T04:02:33.802Z,99.90
2018-06-29T04:08:39.493Z,99.90
2018-06-29T04:14:45.164Z,99.90
2018-06-29T04:20:51.856Z,99.90
2018-06-29T04:26:57.552Z,99.90
2018-06-29T04:33:03.441Z,99.90
2018-06-29T04:39:10.868Z,99.90
2018-06-29T04:45:16.509Z,99.90
2018-06-29T04:51:23.441Z,99.90
2018-06-29T04:57:29.493Z,99.90
2018-06-29T05:03:35.230Z,99.90
2018-06-29T05:09:40.888Z,99.90
2018-06-29T05:15:46.731Z,99.90
2018-06-29T05:21:52.845Z,99.90
2018-06-29T05:27:58.714Z,99.90
2018-06-29T05:34:04.792Z,99.90
2018-06-29T05:40:10.867Z,99.90
2018-06-29T05:46:16.608Z,99.90
2018-06-29T05:52:22.323Z,99.90
2018-06-29T05:58:28.282Z,99.90
2018-06-29T06:04:33.944Z,99.90
2018-06-29T06:10:39.725Z,99.90
2018-06-29T06:16:45.440Z,99.90
2018-06-29T06:22:51.809Z,99.90
2018-06-29T06:28:57.664Z,99.90
2018-06-29T06:35:04.057Z,99.60
2018-06-29T06:41:09.718Z,99.30
2018-06-29T06:47:15.940Z,99.90
2018-06-29T06:53:21.737Z,99.30
2018-06-29T06:59:27.687Z,98.10
2018-06-29T07:05:33.477Z,97.90
2018-06-29T07:11:39.375Z,97.60
2018-06-29T07:17:45.074Z,97.60
2018-06-29T07:23:50.843Z,96.20
2018-06-29T07:29:56.643Z,95.90
2018-06-29T07:36:02.919Z,95.80
2018-06-29T07:42:08.762Z,94.20
2018-06-29T07:48:14.407Z,93.80
2018-06-29T07:54:21.253Z,93.20
2018-06-29T08:00:27.676Z,93.10
2018-06-29T08:06:33.381Z,92.10
2018-06-29T08:12:39.036Z,92.70
2018-06-29T08:33:31.139Z,90.00
2018-06-29T08:39:36.959Z,88.70
2018-06-29T08:45:42.611Z,86.60
2018-06-29T08:51:48.363Z,81.50
2018-06-29T08:57:54.898Z,79.70
2018-06-29T09:04:00.723Z,82.20
2018-06-29T09:10:07.135Z,78.40
2018-06-29T09:16:12.921Z,78.80
2018-06-29T09:22:18.831Z,78.60
2018-06-29T09:28:25.051Z,78.00
2018-06-29T09:34:30.762Z,74.70
2018-06-29T09:40:36.491Z,76.50
2018-06-29T09:46:42.179Z,73.70
2018-06-29T09:52:47.815Z,70.60
2018-06-29T09:58:54.431Z,72.20
2018-06-29T10:05:00.518Z,68.80
2018-06-29T10:11:06.345Z,69.20
2018-06-29T10:17:12.065Z,65.10
2018-06-29T10:23:17.709Z,66.20
2018-06-29T10:29:23.416Z,63.20
2018-06-29T10:35:29.066Z,61.50
2018-06-29T10:41:34.767Z,61.70
2018-06-29T10:47:40.477Z,58.50
2018-06-29T10:53:46.195Z,57.40
2018-06-29T10:59:52.489Z,57.10
2018-06-29T11:05:58.302Z,54.30
2018-06-29T11:12:03.969Z,56.80
2018-06-29T11:18:09.819Z,55.40
2018-06-29T11:24:15.648Z,53.50
2018-06-29T11:30:22.800Z,54.60
2018-06-29T11:36:28.488Z,54.40
2018-06-29T11:42:34.280Z,54.50
2018-06-29T11:48:40.187Z,49.90
2018-06-29T11:54:46.107Z,52.30
2018-06-29T12:00:52.655Z,51.30
2018-06-29T12:06:58.611Z,49.30
2018-06-29T12:13:04.312Z,48.90
2018-06-29T12:25:15.343Z,48.60
2018-06-29T12:31:21.412Z,46.50
2018-06-29T12:37:27.306Z,46.60
2018-06-29T12:43:33.580Z,46.70
2018-06-29T12:49:39.466Z,42.70
2018-06-29T12:55:45.350Z,43.40
2018-06-29T13:01:51.015Z,42.40
2018-06-29T13:07:56.929Z,42.30
2018-06-29T13:14:02.630Z,42.10
2018-06-29T13:20:08.807Z,42.10
2018-06-29T13:26:14.561Z,39.90
2018-06-29T13:32:20.711Z,37.90
2018-06-29T13:38:26.723Z,39.20
2018-06-29T13:44:32.611Z,39.10
2018-06-29T13:50:38.301Z,40.20
2018-06-29T13:56:44.066Z,36.50
2018-06-29T14:02:49.803Z,37.30
2018-06-29T14:08:56.202Z,38.10
2018-06-29T14:15:01.918Z,38.10
2018-06-29T14:21:08.159Z,37.40
2018-06-29T14:27:14.081Z,39.70
2018-06-29T14:33:21.315Z,36.00
2018-06-29T14:39:27.842Z,35.20
2018-06-29T14:45:33.556Z,35.30
2018-06-29T14:51:39.257Z,36.60
2018-06-29T14:57:44.991Z,35.80
2018-06-29T15:03:50.797Z,35.80
2018-06-29T15:09:56.606Z,36.50
2018-06-29T15:16:02.459Z,35.60
2018-06-29T15:28:13.304Z,35.10
2018-06-29T15:34:19.188Z,35.80
2018-06-29T15:40:25.266Z,36.80
2018-06-29T15:46:31.283Z,36.90
2018-06-29T15:52:36.962Z,36.90
2018-06-29T15:58:42.980Z,35.80
2018-06-29T16:04:48.777Z,36.30
2018-06-29T16:10:54.532Z,35.70
2018-06-29T16:17:00.903Z,34.80
2018-06-29T16:23:06.935Z,36.90
2018-06-29T16:29:12.613Z,36.10
2018-06-29T16:35:18.523Z,36.90
2018-06-29T16:41:25.916Z,36.90
2018-06-29T16:47:31.989Z,34.20
2018-06-29T16:53:37.729Z,32.40
2018-06-29T16:59:43.481Z,31.80
2018-06-29T17:05:50.382Z,32.20
2018-06-29T17:11:56.610Z,35.40
2018-06-29T17:18:02.277Z,35.50
2018-06-29T17:24:08.395Z,37.10
2018-06-29T17:30:14.100Z,36.60
2018-06-29T17:36:19.971Z,36.40
2018-06-29T17:42:26.635Z,36.00
2018-06-29T17:48:32.341Z,36.90
2018-06-29T17:54:38.001Z,37.10
2018-06-29T18:00:43.793Z,37.50
2018-06-29T18:06:49.540Z,39.00
2018-06-29T18:12:55.334Z,41.30
2018-06-29T18:19:01.104Z,41.80
2018-06-29T18:25:06.998Z,42.20
2018-06-29T18:31:12.984Z,43.70
2018-06-29T18:37:19.907Z,44.90
2018-06-29T18:43:26.125Z,44.60
2018-06-29T18:49:32.198Z,44.40
2018-06-29T18:55:38.264Z,45.70
2018-06-29T19:01:44.435Z,47.60
2018-06-29T19:07:51.921Z,52.70
2018-06-29T19:13:58.090Z,56.30
2018-06-29T19:20:04.485Z,57.90
2018-06-29T19:26:10.779Z,60.00
2018-06-29T19:32:16.963Z,59.50
2018-06-29T19:38:23.374Z,61.60
2018-06-29T19:44:29.369Z,65.60
2018-06-29T19:50:35.713Z,66.40
2018-06-29T19:56:41.452Z,67.40
2018-06-29T20:02:47.063Z,68.00
2018-06-29T20:08:53.672Z,69.80
2018-06-29T20:14:59.316Z,71.10
2018-06-29T20:21:05.080Z,73.80
2018-06-29T20:27:10.769Z,75.90
2018-06-29T20:33:16.550Z,79.00
2018-06-29T20:39:22.252Z,81.60
2018-06-29T20:45:27.992Z,81.60
2018-06-29T20:51:33.786Z,83.00
2018-06-29T20:57:39.560Z,83.70
2018-06-29T21:03:45.255Z,86.20
2018-06-29T21:09:51.299Z,88.10
2018-06-29T21:15:57.338Z,89.10
2018-06-29T21:22:03.026Z,90.40
2018-06-29T21:28:08.826Z,91.60
2018-06-29T21:34:14.524Z,93.10
2018-06-29T21:40:20.341Z,94.40
2018-06-29T21:46:26.308Z,94.70
2018-06-29T21:52:32.069Z,95.60
2018-06-29T21:58:37.675Z,95.30
2018-06-29T22:04:43.468Z,95.60
2018-06-29T22:10:49.365Z,95.90
2018-06-29T22:16:55.425Z,95.70
2018-06-29T22:23:01.305Z,96.30
2018-06-29T22:29:07.101Z,97.10
2018-06-29T22:35:12.860Z,98.10
2018-06-29T22:41:18.695Z,99.10
2018-06-29T22:47:25.416Z,99.90
2018-06-29T22:53:31.278Z,99.90
2018-06-29T22:59:37.014Z,99.90
2018-06-29T23:05:42.753Z,99.90
2018-06-29T23:11:48.409Z,99.90
2018-06-29T23:17:54.550Z,99.90
2018-06-29T23:24:00.182Z,99.90
2018-06-29T23:30:05.974Z,99.90
2018-06-29T23:36:11.668Z,99.90
2018-06-29T23:42:17.336Z,99.90
2018-06-29T23:48:25.089Z,99.90
2018-06-29T23:54:30.872Z,99.90
